Pagina principale
METAR-TAF:

METAR-TAF

Aeroporti :

San Gallo, Svizzera

latitudine: 47-29-06N, longitudine: 009-33-43E, altezza: 398 m

Osservazione

Il bollettino è stato emesso 39 minuti fa, alle 23:20 UTC
Vento 3 kt da direzioni variabili
Temperature 9°C
Umidità 81%
Pressione 1018 hPa
Visibilità 10 km o più

METAR: LSZR 302320Z AUTO VRB03KT 9999 NCD 09/06 Q1018

Ora: 01:59 (23:59 UTC)

Previsione

Il bollettino è stato emesso 9 ore e 34 minuti fa, alle 14:25 UTC
Previsione valida dal 30 alle 15 UTC al 30 alle 24 UTC
Vento 8 kt da nord/nord-ovest
Visibilità 10 km o più
Poco nuvoloso ad un'altezza di 6000 ft
Probabilità 30% :
Temporaneamente
dal 30 alle 15 UTC al 30 alle 18 UTC
Vento 15 kt da nord/nord-est con raffiche fino a 25 kt
Evoluzione graduale
dal 30 alle 20 UTC al 30 alle 23 UTC
Visibilità 10 km o più
nessuna nube inferiore a 1500 m e nessun cumulonembo

TAF: LSZR 301425Z 3015/3024 34008KT 9999 FEW060 PROB30 TEMPO 3015/3018 03015G25KT BECMG 3020/3023 CAVOK

Osservazioni e previsioni meteorologiche di più di 4000 aeroporti (messaggi METAR e TAF).

Le stazioni disponibili sono rappresentate dai dischi gialli e rossi sulla carta.

Puntare il mouse per vedere il nome della stazione.

Clicca sopra per visualizzare le osservazioni e previsioni meteorologiche.

Per cambiare la mappa : fare clic sui pulsanti verdi con una croce nera per ingrandire, il pulsante verde con un trattino per diminuire, o sulla freccia verde per le mappe adiacenti.


METAR-TAF: